Time,TemperatureF,DewpointF,PressureIn,WindDirection,WindDirectionDegrees,WindSpeedMPH,WindSpeedGustMPH,Humidity,HourlyPrecipIn,Conditions,Clouds,dailyrainin,SoftwareType,DateUTC
2017-05-26 00:02:00,57.0,57.0,29.46,SSW,204,0.0,0.0,100,0.07,,OVC033,0.00,VWS V15.00,2017-05-26 04:02:00,
2017-05-26 00:07:00,57.0,57.0,29.46,SSW,204,0.0,0.0,100,0.08,,OVC033,0.01,VWS V15.00,2017-05-26 04:07:00,
2017-05-26 00:12:00,57.0,57.0,29.47,SSW,203,0.0,0.0,100,0.10,,OVC033,0.03,VWS V15.00,2017-05-26 04:12:00,
2017-05-26 00:17:00,57.0,57.0,29.46,SSW,203,0.0,0.0,100,0.11,,OVC033,0.04,VWS V15.00,2017-05-26 04:17:00,
2017-05-26 00:22:00,57.2,57.2,29.45,SSW,203,0.0,2.0,100,0.11,,OVC033,0.04,VWS V15.00,2017-05-26 04:22:00,
2017-05-26 00:27:00,57.2,57.2,29.45,SSW,202,0.0,2.0,100,0.12,,OVC033,0.05,VWS V15.00,2017-05-26 04:27:00,
2017-05-26 00:32:00,57.2,57.2,29.46,SSE,163,0.0,0.0,100,0.13,,OVC033,0.06,VWS V15.00,2017-05-26 04:32:00,
2017-05-26 00:37:00,57.1,57.1,29.46,ENE,70,0.0,3.0,100,0.14,,OVC033,0.07,VWS V15.00,2017-05-26 04:37:00,
2017-05-26 00:42:00,57.1,57.1,29.47,ENE,69,0.0,3.0,100,0.15,,OVC033,0.08,VWS V15.00,2017-05-26 04:42:00,
2017-05-26 00:47:00,57.2,57.2,29.46,ENE,69,0.0,3.0,100,0.16,,,0.09,VWS V15.00,2017-05-26 04:47:00,
2017-05-26 00:52:00,57.3,57.3,29.46,ENE,69,0.0,3.0,100,0.17,,,0.10,VWS V15.00,2017-05-26 04:52:00,
2017-05-26 00:57:00,57.0,57.0,29.47,ENE,69,0.0,3.0,100,0.18,,,0.00,VWS V15.00,2017-05-26 04:57:00,
2017-05-26 01:02:00,56.9,56.9,29.47,ENE,69,0.0,0.0,100,0.13,,,0.13,VWS V15.00,2017-05-26 05:02:00,
2017-05-26 01:07:00,56.7,56.7,29.47,ENE,68,0.0,0.0,100,0.14,,,0.14,VWS V15.00,2017-05-26 05:07:00,
2017-05-26 01:12:00,56.7,56.7,29.47,ENE,65,3.0,4.0,100,0.15,,,0.15,VWS V15.00,2017-05-26 05:12:00,
2017-05-26 01:17:00,56.6,56.6,29.47,NNE,19,2.0,5.0,100,0.16,,,0.16,VWS V15.00,2017-05-26 05:17:00,
2017-05-26 01:22:00,56.6,56.6,29.46,NNE,17,4.0,5.0,100,0.17,,,0.17,VWS V15.00,2017-05-26 05:22:00,
2017-05-26 01:27:00,56.6,56.6,29.45,NNE,23,3.0,6.0,100,0.19,,,0.19,VWS V15.00,2017-05-26 05:27:00,
2017-05-26 01:32:00,56.4,56.4,29.45,NNE,24,5.0,5.0,100,0.14,,,0.20,VWS V15.00,2017-05-26 05:32:00,
2017-05-26 01:37:00,56.1,56.1,29.45,NNE,29,1.0,8.0,100,0.15,,,0.21,VWS V15.00,2017-05-26 05:37:00,
2017-05-26 01:42:00,56.1,56.1,29.44,NNE,12,0.0,8.0,100,0.16,,,0.22,VWS V15.00,2017-05-26 05:42:00,
2017-05-26 01:47:00,56.0,56.0,29.43,NE,42,2.0,8.0,100,0.17,,,0.23,VWS V15.00,2017-05-26 05:47:00,
2017-05-26 01:52:00,56.0,56.0,29.44,North,6,4.0,8.0,100,0.18,,,0.24,VWS V15.00,2017-05-26 05:52:00,
2017-05-26 01:57:00,55.8,55.8,29.43,NNE,19,2.0,8.0,100,0.19,,,0.25,VWS V15.00,2017-05-26 05:57:00,
2017-05-26 02:02:00,55.9,55.9,29.44,ENE,72,6.0,6.0,100,0.14,,-RA,0.26,VWS V15.00,2017-05-26 06:02:00,
2017-05-26 02:07:00,55.9,55.9,29.43,NE,42,0.0,6.0,100,0.15,,-RA,0.27,VWS V15.00,2017-05-26 06:07:00,
2017-05-26 02:12:00,55.8,55.8,29.44,East,95,0.0,8.0,100,0.17,,-RA,0.29,VWS V15.00,2017-05-26 06:12:00,
2017-05-26 02:17:00,55.6,55.6,29.44,NE,42,0.0,8.0,100,0.18,,-RA,0.30,VWS V15.00,2017-05-26 06:17:00,
2017-05-26 02:22:00,55.7,55.7,29.44,NE,37,0.0,8.0,100,0.19,,-RA,0.31,VWS V15.00,2017-05-26 06:22:00,
2017-05-26 02:27:00,55.8,55.8,29.44,NE,38,0.0,8.0,100,0.20,,-RA,0.32,VWS V15.00,2017-05-26 06:27:00,
2017-05-26 02:32:00,55.9,55.9,29.45,NE,38,0.0,0.0,100,0.14,,-RA,0.33,VWS V15.00,2017-05-26 06:32:00,
2017-05-26 02:37:00,56.0,56.0,29.44,NE,54,0.0,4.0,100,0.15,,-RA,0.34,VWS V15.00,2017-05-26 06:37:00,
2017-05-26 02:42:00,56.0,56.0,29.45,ENE,63,0.0,4.0,100,0.15,,-RA,0.34,VWS V15.00,2017-05-26 06:42:00,
2017-05-26 02:47:00,55.9,55.9,29.45,ENE,71,0.0,4.0,100,0.16,,-RA,0.35,VWS V15.00,2017-05-26 06:47:00,
2017-05-26 02:52:00,56.2,56.2,29.45,ENE,71,0.0,4.0,100,0.17,,-RA,0.36,VWS V15.00,2017-05-26 06:52:00,
2017-05-26 02:57:00,56.1,56.1,29.45,ENE,72,0.0,4.0,100,0.18,,-RA,0.37,VWS V15.00,2017-05-26 06:57:00,
2017-05-26 03:02:00,56.2,56.2,29.45,NE,40,0.0,2.0,100,0.12,,-RA,0.38,VWS V15.00,2017-05-26 07:02:00,
2017-05-26 03:07:00,56.1,56.1,29.46,NNE,33,0.0,5.0,100,0.13,,-RA,0.39,VWS V15.00,2017-05-26 07:07:00,
2017-05-26 03:12:00,56.0,56.0,29.46,NE,34,0.0,5.0,100,0.13,,-RA,0.39,VWS V15.00,2017-05-26 07:12:00,
2017-05-26 03:17:00,56.1,56.1,29.46,NE,34,0.0,5.0,100,0.14,,-RA,0.40,VWS V15.00,2017-05-26 07:17:00,
2017-05-26 03:22:00,56.1,56.1,29.47,NNE,33,0.0,5.0,100,0.15,,-RA,0.41,VWS V15.00,2017-05-26 07:22:00,
2017-05-26 03:27:00,56.2,56.2,29.47,NE,34,0.0,5.0,100,0.16,,-RA,0.42,VWS V15.00,2017-05-26 07:27:00,
2017-05-26 03:32:00,56.2,56.2,29.47,NE,34,0.0,5.0,100,0.10,,-RA,0.42,VWS V15.00,2017-05-26 07:32:00,
2017-05-26 03:37:00,56.2,56.2,29.47,NE,34,3.0,5.0,100,0.11,,-RA,0.43,VWS V15.00,2017-05-26 07:37:00,
2017-05-26 03:42:00,56.2,56.2,29.47,NE,34,0.0,5.0,100,0.12,,-RA,0.44,VWS V15.00,2017-05-26 07:42:00,
2017-05-26 03:47:00,56.1,56.1,29.48,NE,34,0.0,5.0,100,0.13,,-RA,0.45,VWS V15.00,2017-05-26 07:47:00,
2017-05-26 03:52:00,56.0,56.0,29.48,NNE,33,0.0,5.0,100,0.13,,-RA,0.45,VWS V15.00,2017-05-26 07:52:00,
2017-05-26 03:57:00,56.0,56.0,29.48,NNE,33,0.0,5.0,100,0.14,,-RA,0.46,VWS V15.00,2017-05-26 07:57:00,
2017-05-26 04:02:00,56.0,56.0,29.48,NNE,33,0.0,0.0,100,0.10,,-RA,0.47,VWS V15.00,2017-05-26 08:02:00,
2017-05-26 04:07:00,56.0,56.0,29.48,NNE,33,0.0,3.0,100,0.10,,-RA,0.47,VWS V15.00,2017-05-26 08:07:00,
2017-05-26 04:12:00,55.9,55.9,29.49,NNE,33,0.0,3.0,100,0.11,,-RA,0.48,VWS V15.00,2017-05-26 08:12:00,
2017-05-26 04:17:00,55.8,55.8,29.49,NNE,33,0.0,3.0,100,0.12,,-RA,0.49,VWS V15.00,2017-05-26 08:17:00,
2017-05-26 04:18:00,55.8,55.8,29.49,NE,34,0.0,3.0,100,0.12,,-RA,0.49,VWS V15.00,2017-05-26 08:18:00,
2017-05-26 04:23:00,55.7,55.7,29.49,NNE,33,0.0,3.0,100,0.12,,-RA,0.49,VWS V15.00,2017-05-26 08:23:00,
2017-05-26 04:24:00,55.7,55.7,29.49,NNE,33,0.0,3.0,100,0.12,,-RA,0.49,VWS V15.00,2017-05-26 08:24:00,
2017-05-26 04:29:00,55.5,55.5,29.49,NNE,33,0.0,3.0,100,0.13,,-RA,0.50,VWS V15.00,2017-05-26 08:29:00,
2017-05-26 04:34:00,55.4,55.4,29.50,NE,34,0.0,0.0,100,0.09,,-RA,0.51,VWS V15.00,2017-05-26 08:34:00,
2017-05-26 04:39:00,55.3,55.3,29.50,NE,34,0.0,0.0,100,0.09,,-RA,0.51,VWS V15.00,2017-05-26 08:39:00,
2017-05-26 04:44:00,55.3,55.3,29.49,NNE,33,0.0,0.0,100,0.10,,-RA,0.52,VWS V15.00,2017-05-26 08:44:00,
2017-05-26 04:49:00,55.2,55.2,29.50,NE,34,0.0,0.0,100,0.10,, +RA,0.52,VWS V15.00,2017-05-26 08:49:00,
2017-05-26 04:54:00,55.2,55.2,29.50,NE,34,0.0,0.0,100,0.11,, +RA,0.53,VWS V15.00,2017-05-26 08:54:00,
2017-05-26 04:59:00,55.3,55.3,29.50,NNE,33,1.0,2.0,100,0.11,, +RA,0.53,VWS V15.00,2017-05-26 08:59:00,
2017-05-26 05:04:00,55.3,55.3,29.50,NNE,33,0.0,3.0,100,0.08,, +RA,0.54,VWS V15.00,2017-05-26 09:04:00,
2017-05-26 05:09:00,55.3,55.3,29.51,NE,34,0.0,3.0,100,0.08,, +RA,0.54,VWS V15.00,2017-05-26 09:09:00,
2017-05-26 05:14:00,55.3,55.3,29.51,NE,34,0.0,3.0,100,0.09,, +RA,0.55,VWS V15.00,2017-05-26 09:14:00,
2017-05-26 05:19:00,55.4,55.4,29.51,NE,34,0.0,3.0,100,0.09,, +RA,0.55,VWS V15.00,2017-05-26 09:19:00,
2017-05-26 05:24:00,55.3,55.3,29.51,NE,34,0.0,3.0,100,0.10,, +RA,0.56,VWS V15.00,2017-05-26 09:24:00,
2017-05-26 05:29:00,55.4,55.4,29.51,NE,34,0.0,3.0,100,0.10,, +RA,0.56,VWS V15.00,2017-05-26 09:29:00,
2017-05-26 05:34:00,55.5,55.5,29.52,NE,34,0.0,0.0,100,0.07,, +RA,0.57,VWS V15.00,2017-05-26 09:34:00,
2017-05-26 05:39:00,55.5,55.5,29.52,NNE,33,0.0,0.0,100,0.07,, +RA,0.57,VWS V15.00,2017-05-26 09:39:00,
2017-05-26 05:44:00,55.5,55.5,29.52,NE,34,0.0,0.0,100,0.08,, +RA,0.58,VWS V15.00,2017-05-26 09:44:00,
2017-05-26 05:49:00,55.5,55.5,29.52,NE,34,0.0,0.0,100,0.08,,-RA,0.58,VWS V15.00,2017-05-26 09:49:00,
2017-05-26 05:54:00,55.5,55.5,29.53,NE,34,0.0,1.0,100,0.09,,-RA,0.59,VWS V15.00,2017-05-26 09:54:00,
2017-05-26 05:59:00,55.5,55.5,29.54,NNE,33,0.0,1.0,100,0.09,,-RA,0.59,VWS V15.00,2017-05-26 09:59:00,
2017-05-26 06:04:00,55.4,55.4,29.54,NE,34,0.0,0.0,100,0.07,,-RA,0.60,VWS V15.00,2017-05-26 10:04:00,
2017-05-26 06:09:00,55.4,55.4,29.54,NNE,33,0.0,0.0,100,0.07,,-RA,0.60,VWS V15.00,2017-05-26 10:09:00,
2017-05-26 06:14:00,55.4,55.4,29.54,NE,40,2.0,6.0,100,0.07,,-RA,0.60,VWS V15.00,2017-05-26 10:14:00,
2017-05-26 06:19:00,55.4,55.4,29.54,NE,40,0.0,6.0,100,0.08,,-RA,0.61,VWS V15.00,2017-05-26 10:19:00,
2017-05-26 06:24:00,55.4,55.4,29.55,NE,40,0.0,6.0,100,0.08,,-RA,0.61,VWS V15.00,2017-05-26 10:24:00,
2017-05-26 06:29:00,55.4,55.4,29.55,NE,40,0.0,6.0,100,0.09,,-RA,0.62,VWS V15.00,2017-05-26 10:29:00,
2017-05-26 06:34:00,55.4,55.4,29.55,NE,40,0.0,0.0,100,0.06,,-RA,0.62,VWS V15.00,2017-05-26 10:34:00,
2017-05-26 06:39:00,55.5,55.5,29.55,NE,40,0.0,0.0,100,0.06,,-RA,0.62,VWS V15.00,2017-05-26 10:39:00,
2017-05-26 06:44:00,55.5,55.5,29.55,NE,40,0.0,0.0,100,0.07,,-RA,0.63,VWS V15.00,2017-05-26 10:44:00,
2017-05-26 06:49:00,55.5,55.5,29.54,NE,40,0.0,0.0,100,0.07,,OVC026,0.63,VWS V15.00,2017-05-26 10:49:00,
2017-05-26 06:54:00,55.6,55.6,29.55,NE,40,3.0,3.0,100,0.08,,OVC026,0.64,VWS V15.00,2017-05-26 10:54:00,
2017-05-26 06:59:00,55.7,55.7,29.55,NE,40,0.0,5.0,100,0.08,,OVC026,0.64,VWS V15.00,2017-05-26 10:59:00,
2017-05-26 07:04:00,55.8,55.8,29.55,NE,40,0.0,1.0,100,0.05,,OVC026,0.64,VWS V15.00,2017-05-26 11:04:00,
2017-05-26 07:09:00,55.8,55.8,29.55,NE,40,0.0,1.0,100,0.06,,OVC026,0.65,VWS V15.00,2017-05-26 11:09:00,
2017-05-26 07:14:00,55.8,55.8,29.55,NE,40,0.0,5.0,100,0.06,,OVC026,0.65,VWS V15.00,2017-05-26 11:14:00,
2017-05-26 07:19:00,55.9,55.9,29.55,NE,40,0.0,5.0,100,0.06,,OVC026,0.65,VWS V15.00,2017-05-26 11:19:00,
2017-05-26 07:24:00,56.0,56.0,29.55,NE,40,0.0,5.0,100,0.07,,OVC026,0.66,VWS V15.00,2017-05-26 11:24:00,
2017-05-26 07:29:00,56.1,56.1,29.56,NE,40,0.0,5.0,100,0.07,,OVC026,0.66,VWS V15.00,2017-05-26 11:29:00,
2017-05-26 07:34:00,56.0,56.0,29.56,NE,40,0.0,0.0,100,0.04,,OVC026,0.66,VWS V15.00,2017-05-26 11:34:00,
2017-05-26 07:39:00,56.1,56.1,29.56,NE,40,0.0,0.0,100,0.05,,OVC026,0.67,VWS V15.00,2017-05-26 11:39:00,
2017-05-26 07:44:00,56.1,56.1,29.56,NE,40,0.0,4.0,100,0.05,,OVC026,0.67,VWS V15.00,2017-05-26 11:44:00,
2017-05-26 07:49:00,56.3,56.3,29.56,NE,40,0.0,4.0,100,0.05,,-RA,0.67,VWS V15.00,2017-05-26 11:49:00,
2017-05-26 07:54:00,56.3,56.3,29.56,NE,40,0.0,4.0,100,0.06,,-RA,0.68,VWS V15.00,2017-05-26 11:54:00,
2017-05-26 07:59:00,56.4,56.4,29.57,NE,40,0.0,4.0,100,0.06,,-RA,0.68,VWS V15.00,2017-05-26 11:59:00,
2017-05-26 08:04:00,56.5,56.5,29.57,NE,40,0.0,0.0,100,0.04,,BKN024,0.68,VWS V15.00,2017-05-26 12:04:00,
2017-05-26 08:09:00,56.6,56.6,29.57,NE,40,0.0,0.0,100,0.05,,BKN024,0.69,VWS V15.00,2017-05-26 12:09:00,
2017-05-26 08:14:00,56.6,56.6,29.57,NE,40,0.0,0.0,100,0.05,,BKN024,0.69,VWS V15.00,2017-05-26 12:14:00,
2017-05-26 08:19:00,56.7,56.7,29.57,NE,40,0.0,0.0,100,0.05,,BKN024,0.69,VWS V15.00,2017-05-26 12:19:00,
2017-05-26 08:24:00,56.8,56.8,29.58,NNE,33,0.0,0.0,100,0.06,,BKN024,0.70,VWS V15.00,2017-05-26 12:24:00,
2017-05-26 08:29:00,56.8,56.8,29.58,NNE,33,0.0,0.0,100,0.06,,BKN024,0.70,VWS V15.00,2017-05-26 12:29:00,
2017-05-26 08:34:00,57.0,57.0,29.58,NNE,33,0.0,0.0,100,0.04,,BKN024,0.70,VWS V15.00,2017-05-26 12:34:00,
2017-05-26 08:39:00,57.4,57.4,29.58,NNE,33,0.0,1.0,100,0.04,,BKN024,0.70,VWS V15.00,2017-05-26 12:39:00,
2017-05-26 08:44:00,57.5,57.5,29.58,NNE,13,5.0,5.0,100,0.05,,BKN024,0.71,VWS V15.00,2017-05-26 12:44:00,
2017-05-26 08:49:00,57.6,57.6,29.58,NNW,348,0.0,5.0,100,0.05,,BKN170,0.71,VWS V15.00,2017-05-26 12:49:00,
2017-05-26 08:54:00,57.6,57.6,29.58,NNW,348,0.0,5.0,100,0.05,,BKN170,0.71,VWS V15.00,2017-05-26 12:54:00,
2017-05-26 08:59:00,57.6,57.6,29.58,NNW,340,0.0,5.0,100,0.05,,BKN170,0.71,VWS V15.00,2017-05-26 12:59:00,
2017-05-26 09:04:00,57.8,57.8,29.58,NNW,340,0.0,1.0,100,0.04,,BKN170,0.72,VWS V15.00,2017-05-26 13:04:00,
2017-05-26 09:09:00,58.1,57.8,29.58,NNW,347,0.0,1.0,99,0.04,,BKN170,0.72,VWS V15.00,2017-05-26 13:09:00,
2017-05-26 09:14:00,58.3,58.0,29.58,NW,325,0.0,1.0,99,0.04,,BKN170,0.72,VWS V15.00,2017-05-26 13:14:00,
2017-05-26 09:19:00,58.8,58.5,29.58,NE,36,0.0,5.0,99,0.05,,BKN170,0.73,VWS V15.00,2017-05-26 13:19:00,
2017-05-26 09:24:00,59.1,58.5,29.58,NE,36,0.0,5.0,98,0.05,,BKN170,0.73,VWS V15.00,2017-05-26 13:24:00,
2017-05-26 09:34:00,59.3,58.5,29.58,North,358,0.0,1.0,97,0.03,,BKN170,0.73,VWS V15.00,2017-05-26 13:34:00,
2017-05-26 09:39:00,59.6,58.5,29.58,NW,304,4.0,4.0,96,0.04,,BKN170,0.74,VWS V15.00,2017-05-26 13:39:00,
2017-05-26 09:44:00,59.6,58.2,29.58,NW,307,0.0,5.0,95,0.04,,BKN170,0.74,VWS V15.00,2017-05-26 13:44:00,
2017-05-26 09:49:00,59.6,58.2,29.58,NW,310,0.0,5.0,95,0.04,,BKN170,0.74,VWS V15.00,2017-05-26 13:49:00,
2017-05-26 09:54:00,59.9,58.5,29.59,NW,310,3.0,5.0,95,0.04,,BKN170,0.74,VWS V15.00,2017-05-26 13:54:00,
2017-05-26 09:59:00,60.1,58.7,29.58,WNW,303,0.0,5.0,95,0.05,,BKN170,0.75,VWS V15.00,2017-05-26 13:59:00,
2017-05-26 10:04:00,60.4,59.0,29.58,WNW,302,0.0,2.0,95,0.04,,BKN170,0.75,VWS V15.00,2017-05-26 14:04:00,
2017-05-26 10:09:00,60.7,59.3,29.58,North,357,0.0,3.0,95,0.04,,BKN170,0.75,VWS V15.00,2017-05-26 14:09:00,
2017-05-26 10:10:00,60.7,59.0,29.58,North,357,0.0,3.0,94,0.04,,BKN170,0.75,VWS V15.00,2017-05-26 14:10:00,
2017-05-26 10:15:00,61.1,59.1,29.58,NW,324,0.0,5.0,93,0.04,,BKN170,0.75,VWS V15.00,2017-05-26 14:15:00,
2017-05-26 10:20:00,61.3,59.0,29.58,WNW,291,0.0,5.0,92,0.05,,BKN170,0.00,VWS V15.00,2017-05-26 14:20:00,
2017-05-26 10:25:00,61.7,60.0,29.58,WNW,291,0.0,5.0,94,0.05,,BKN170,0.76,VWS V15.00,2017-05-26 14:25:00,
2017-05-26 10:30:00,62.3,60.0,29.58,NNW,336,0.0,5.0,92,0.05,,BKN170,0.76,VWS V15.00,2017-05-26 14:30:00,
2017-05-26 10:35:00,62.5,60.2,29.58,WNW,290,0.0,4.0,92,0.03,,BKN170,0.76,VWS V15.00,2017-05-26 14:35:00,
2017-05-26 10:40:00,62.8,60.1,29.58,West,277,0.0,6.0,91,0.03,,BKN170,0.76,VWS V15.00,2017-05-26 14:40:00,
2017-05-26 10:45:00,63.1,60.1,29.58,NNW,329,5.0,6.0,90,0.04,,BKN170,0.77,VWS V15.00,2017-05-26 14:45:00,
2017-05-26 10:50:00,63.4,60.4,29.59,North,359,0.0,6.0,90,0.04,,BKN260,0.77,VWS V15.00,2017-05-26 14:50:00,
2017-05-26 10:55:00,63.7,60.7,29.58,NW,321,3.0,7.0,90,0.04,,BKN260,0.77,VWS V15.00,2017-05-26 14:55:00,
2017-05-26 11:00:00,64.2,61.2,29.58,NNE,23,3.0,7.0,90,0.04,,BKN260,0.77,VWS V15.00,2017-05-26 15:00:00,
2017-05-26 11:05:00,64.5,61.2,29.58,NW,320,0.0,3.0,89,0.03,,BKN260,0.78,VWS V15.00,2017-05-26 15:05:00,
2017-05-26 11:10:00,64.7,61.1,29.58,NW,315,0.0,8.0,88,0.03,,BKN260,0.78,VWS V15.00,2017-05-26 15:10:00,
2017-05-26 11:15:00,64.9,61.3,29.59,North,2,0.0,8.0,88,0.03,,BKN260,0.78,VWS V15.00,2017-05-26 15:15:00,
2017-05-26 11:20:00,64.9,60.9,29.59,NW,307,0.0,8.0,87,0.03,,BKN260,0.78,VWS V15.00,2017-05-26 15:20:00,
2017-05-26 11:25:00,65.0,61.0,29.59,North,0,0.0,8.0,87,0.03,,BKN260,0.78,VWS V15.00,2017-05-26 15:25:00,
2017-05-26 11:30:00,65.0,61.0,29.58,NW,325,0.0,8.0,87,0.04,,BKN260,0.79,VWS V15.00,2017-05-26 15:30:00,
2017-05-26 11:35:00,65.2,61.6,29.59,NNW,345,0.0,6.0,88,0.03,,BKN260,0.79,VWS V15.00,2017-05-26 15:35:00,
2017-05-26 11:40:00,65.3,61.0,29.59,WNW,294,0.0,6.0,86,0.03,,BKN260,0.79,VWS V15.00,2017-05-26 15:40:00,